createdAt,value
2023-02-03T00:00:13.227Z,98579.38
2023-02-03T00:01:17.078Z,98580.63
2023-02-03T00:02:20.122Z,98584.34
2023-02-03T00:03:23.263Z,98579.38
2023-02-03T00:04:26.020Z,98592.91
2023-02-03T00:05:29.955Z,98591.47
2023-02-03T00:06:33.576Z,98593.91
2023-02-03T00:07:38.503Z,98587.34
2023-02-03T00:08:41.702Z,98593.97
2023-02-03T00:09:44.588Z,98588.50
2023-02-03T00:10:47.740Z,98592.03
2023-02-03T00:11:50.705Z,98590.78
2023-02-03T00:12:54.142Z,98590.31
2023-02-03T00:13:57.022Z,98594.25
2023-02-03T00:14:59.988Z,98595.25
2023-02-03T00:16:06.810Z,98591.37
2023-02-03T00:17:09.746Z,98590.63
2023-02-03T00:18:12.990Z,98601.47
2023-02-03T00:19:17.527Z,98602.38
2023-02-03T00:20:20.818Z,98591.25
2023-02-03T00:21:24.101Z,98597.19
2023-02-03T00:22:27.110Z,98600.34
2023-02-03T00:23:32.417Z,98608.25
2023-02-03T00:24:35.354Z,98603.12
2023-02-03T00:25:39.360Z,98600.91
2023-02-03T00:26:43.654Z,98602.91
2023-02-03T00:27:51.196Z,98608.22
2023-02-03T00:28:54.482Z,98614.34
2023-02-03T00:29:57.341Z,98619.75
2023-02-03T00:31:00.180Z,98613.31
2023-02-03T00:32:04.585Z,98617.28
2023-02-03T00:33:07.583Z,98629.91
2023-02-03T00:34:10.778Z,98628.87
2023-02-03T00:35:13.585Z,98637.28
2023-02-03T00:36:16.420Z,98637.47
2023-02-03T00:37:19.384Z,98644.41
2023-02-03T00:38:23.233Z,98631.38
2023-02-03T00:39:26.103Z,98639.53
2023-02-03T00:40:30.204Z,98641.06
2023-02-03T00:41:33.248Z,98624.53
2023-02-03T00:42:36.342Z,98635.06
2023-02-03T00:43:39.211Z,98638.50
2023-02-03T00:44:42.071Z,98637.06
2023-02-03T00:45:45.013Z,98639.28
2023-02-03T00:46:48.261Z,98643.03
2023-02-03T00:47:51.347Z,98636.16
2023-02-03T00:48:54.289Z,98637.09
2023-02-03T00:49:57.220Z,98639.84
2023-02-03T00:51:00.120Z,98651.81
2023-02-03T00:52:03.271Z,98645.94
2023-02-03T00:53:10.145Z,98642.97
2023-02-03T00:54:13.841Z,98639.75
2023-02-03T00:55:16.841Z,98635.06
2023-02-03T00:56:23.232Z,98647.88
2023-02-03T00:57:26.090Z,98652.34
2023-02-03T00:58:29.005Z,98647.94
2023-02-03T00:59:32.082Z,98638.06
2023-02-03T01:00:35.175Z,98650.38
2023-02-03T01:01:38.325Z,98647.94
2023-02-03T01:02:41.501Z,98648.44
2023-02-03T01:03:44.712Z,98656.09
2023-02-03T01:04:48.942Z,98652.66
2023-02-03T01:05:51.880Z,98656.34
2023-02-03T01:06:57.670Z,98651.31
2023-02-03T01:08:01.948Z,98659.94
2023-02-03T01:09:04.960Z,98663.66
2023-02-03T01:10:08.611Z,98666.13
2023-02-03T01:11:21.092Z,98659.22
2023-02-03T01:12:24.783Z,98664.84
2023-02-03T01:13:28.371Z,98672.97
2023-02-03T01:14:31.848Z,98660.69
2023-02-03T01:15:34.912Z,98674.03
2023-02-03T01:16:38.932Z,98670.84
2023-02-03T01:17:41.838Z,98672.84
2023-02-03T01:18:45.361Z,98670.84
2023-02-03T01:19:48.203Z,98671.53
2023-02-03T01:20:51.146Z,98676.00
2023-02-03T01:21:54.112Z,98675.25
2023-02-03T01:22:57.850Z,98672.31
2023-02-03T01:24:05.644Z,98667.87
2023-02-03T01:25:09.521Z,98668.41
2023-02-03T01:26:15.993Z,98670.91
2023-02-03T01:27:18.946Z,98667.94
2023-02-03T01:28:22.142Z,98675.53
2023-02-03T01:29:25.385Z,98674.56
2023-02-03T01:30:28.681Z,98670.16
2023-02-03T01:31:49.732Z,98655.62
2023-02-03T01:32:52.762Z,98669.09
2023-02-03T01:33:56.501Z,98673.31
2023-02-03T01:34:59.469Z,98670.38
2023-02-03T01:36:02.746Z,98681.03
2023-02-03T01:37:06.196Z,98679.03
2023-02-03T01:38:09.178Z,98663.03
2023-02-03T01:39:12.337Z,98667.25
2023-02-03T01:40:15.251Z,98677.81
2023-02-03T01:41:22.179Z,98668.97
2023-02-03T01:42:25.246Z,98672.41
2023-02-03T01:43:36.966Z,98674.87
2023-02-03T01:44:49.549Z,98665.78
2023-02-03T01:45:52.666Z,98674.94
2023-02-03T01:46:56.567Z,98677.16
2023-02-03T01:48:00.405Z,98678.81
2023-02-03T01:49:20.281Z,98674.94
2023-02-03T01:50:31.063Z,98679.91
2023-02-03T01:51:34.822Z,98678.88
2023-02-03T01:52:41.431Z,98685.28
2023-02-03T01:53:44.838Z,98684.50
2023-02-03T01:54:50.674Z,98678.66
2023-02-03T01:55:53.854Z,98695.06
2023-02-03T01:57:06.815Z,98688.97
2023-02-03T01:58:22.856Z,98687.75
2023-02-03T01:59:27.257Z,98679.12
2023-02-03T02:00:30.723Z,98682.59
2023-02-03T02:01:35.242Z,98687.03
2023-02-03T02:02:38.261Z,98690.50
2023-02-03T02:03:56.088Z,98689.78
2023-02-03T02:05:07.357Z,98695.75
2023-02-03T02:06:14.234Z,98693.78
2023-02-03T02:07:17.763Z,98694.75
2023-02-03T02:08:24.101Z,98701.34
2023-02-03T02:09:28.068Z,98696.16
2023-02-03T02:10:32.440Z,98694.94
2023-02-03T02:11:35.407Z,98702.56
2023-02-03T02:12:40.878Z,98698.34
2023-02-03T02:13:46.151Z,98695.41
2023-02-03T02:14:49.350Z,98699.13
2023-02-03T02:16:12.413Z,98697.16
2023-02-03T02:17:26.903Z,98694.72
2023-02-03T02:18:48.220Z,98694.22
2023-02-03T02:20:09.507Z,98692.75
2023-02-03T02:21:34.122Z,98702.63
2023-02-03T02:23:04.195Z,98705.53
2023-02-03T02:24:37.135Z,98700.41
2023-02-03T02:26:04.906Z,98690.81
2023-02-03T02:27:13.702Z,98700.16
2023-02-03T02:28:53.662Z,98701.88
2023-02-03T02:30:18.621Z,98705.63
2023-02-03T02:31:54.605Z,98697.22
2023-02-03T02:33:33.734Z,98693.53
2023-02-03T02:35:09.900Z,98700.69
2023-02-03T02:36:35.328Z,98706.84
2023-02-03T02:37:43.699Z,98699.97
2023-02-03T02:39:03.906Z,98696.03
2023-02-03T02:40:48.142Z,98696.97
2023-02-03T02:42:05.514Z,98691.81
2023-02-03T02:43:21.323Z,98707.59
2023-02-03T02:44:30.661Z,98698.25
2023-02-03T02:46:07.306Z,98712.28
2023-02-03T02:47:27.923Z,98703.19
2023-02-03T02:48:48.493Z,98718.69
2023-02-03T02:50:01.198Z,98715.72
2023-02-03T02:51:07.422Z,98705.66
2023-02-03T02:52:14.340Z,98709.34
2023-02-03T02:53:20.713Z,98718.19
2023-02-03T02:54:27.847Z,98716.50
2023-02-03T02:55:34.449Z,98721.37
2023-02-03T02:56:40.227Z,98720.87
2023-02-03T02:57:44.922Z,98724.34
2023-02-03T02:58:51.101Z,98713.81
2023-02-03T02:59:54.948Z,98730.28
2023-02-03T03:00:58.783Z,98721.91
2023-02-03T03:02:02.463Z,98725.12
2023-02-03T03:03:24.837Z,98722.66
2023-02-03T03:04:30.909Z,98730.75
2023-02-03T03:05:34.741Z,98724.12
2023-02-03T03:06:42.785Z,98732.00
2023-02-03T03:07:52.967Z,98729.53
2023-02-03T03:09:05.955Z,98729.31
2023-02-03T03:10:14.443Z,98722.66
2023-02-03T03:11:18.853Z,98719.22
2023-02-03T03:12:27.893Z,98723.41
2023-02-03T03:13:48.397Z,98723.88
2023-02-03T03:14:59.031Z,98724.12
2023-02-03T03:16:05.591Z,98716.53
2023-02-03T03:17:12.022Z,98718.94
2023-02-03T03:18:21.860Z,98713.31
2023-02-03T03:19:32.722Z,98713.81
2023-02-03T03:20:37.763Z,98720.72
2023-02-03T03:21:53.995Z,98714.53
2023-02-03T03:23:04.417Z,98720.91
2023-02-03T03:24:23.185Z,98709.62
2023-02-03T03:25:49.307Z,98709.62
2023-02-03T03:27:18.438Z,98708.91
2023-02-03T03:28:28.761Z,98717.50
2023-02-03T03:29:35.453Z,98711.09
2023-02-03T03:30:39.586Z,98715.03
2023-02-03T03:31:43.524Z,98707.44
2023-02-03T03:32:46.866Z,98711.38
2023-02-03T03:33:50.098Z,98714.59
2023-02-03T03:34:53.217Z,98715.03
2023-02-03T03:36:08.631Z,98699.34
2023-02-03T03:37:37.004Z,98705.97
2023-02-03T03:38:47.393Z,98697.37
2023-02-03T03:39:59.055Z,98707.47
2023-02-03T03:41:19.620Z,98700.09
2023-02-03T03:42:31.298Z,98703.81
2023-02-03T03:43:40.228Z,98706.75
2023-02-03T03:44:50.340Z,98706.75
2023-02-03T03:46:13.686Z,98697.87
2023-02-03T03:47:29.180Z,98700.56
2023-02-03T03:48:38.251Z,98699.31
2023-02-03T03:49:44.646Z,98694.69
2023-02-03T03:50:53.492Z,98688.03
2023-02-03T03:52:01.621Z,98694.16
2023-02-03T03:53:07.728Z,98699.81
2023-02-03T03:54:15.110Z,98693.44
2023-02-03T03:55:20.945Z,98701.78
2023-02-03T03:56:29.811Z,98691.19
2023-02-03T03:57:40.260Z,98692.91
2023-02-03T03:58:53.136Z,98689.50
2023-02-03T04:00:02.362Z,98699.59
2023-02-03T04:01:07.643Z,98694.44
2023-02-03T04:02:13.543Z,98696.88
2023-02-03T04:03:21.522Z,98702.28
2023-02-03T04:04:26.198Z,98694.94
2023-02-03T04:05:29.063Z,98695.66
2023-02-03T04:06:32.069Z,98695.66
2023-02-03T04:07:41.480Z,98697.87
2023-02-03T04:08:44.518Z,98698.09
2023-02-03T04:09:47.454Z,98697.59
2023-02-03T04:10:50.685Z,98696.59
2023-02-03T04:12:02.531Z,98692.91
2023-02-03T04:13:07.551Z,98699.56
2023-02-03T04:14:10.996Z,98695.38
2023-02-03T04:15:14.185Z,98696.91
2023-02-03T04:16:17.054Z,98691.47
2023-02-03T04:17:20.641Z,98684.09
2023-02-03T04:18:24.349Z,98691.19
2023-02-03T04:19:27.921Z,98683.34
2023-02-03T04:20:32.691Z,98685.28
2023-02-03T04:21:35.631Z,98687.28
2023-02-03T04:22:38.547Z,98684.84
2023-02-03T04:23:41.465Z,98682.84
2023-02-03T04:24:44.331Z,98683.34
2023-02-03T04:25:47.383Z,98682.34
2023-02-03T04:26:50.791Z,98683.31
2023-02-03T04:27:53.805Z,98681.81
2023-02-03T04:28:56.863Z,98682.09
2023-02-03T04:29:59.832Z,98687.72
2023-02-03T04:31:02.778Z,98678.91
2023-02-03T04:32:05.866Z,98689.69
2023-02-03T04:33:09.031Z,98684.56
2023-02-03T04:34:12.108Z,98687.03
2023-02-03T04:35:15.651Z,98692.63
2023-02-03T04:36:18.629Z,98696.06
2023-02-03T04:37:23.459Z,98692.16
2023-02-03T04:38:26.525Z,98691.41
2023-02-03T04:39:29.556Z,98688.44
2023-02-03T04:40:34.730Z,98690.66
2023-02-03T04:41:37.907Z,98674.72
2023-02-03T04:42:41.851Z,98683.81
2023-02-03T04:43:45.698Z,98685.78
2023-02-03T04:44:49.103Z,98677.69
2023-02-03T04:45:52.232Z,98692.91
2023-02-03T04:46:55.282Z,98700.50
2023-02-03T04:47:58.226Z,98696.31
2023-02-03T04:49:01.187Z,98708.13
2023-02-03T04:50:04.495Z,98703.00
2023-02-03T04:51:08.939Z,98703.97
2023-02-03T04:52:12.140Z,98700.97
2023-02-03T04:53:16.079Z,98702.47
2023-02-03T04:54:19.015Z,98693.38
2023-02-03T04:55:22.037Z,98695.09
2023-02-03T04:56:24.921Z,98697.31
2023-02-03T04:57:27.814Z,98691.69
2023-02-03T04:58:30.698Z,98691.94
2023-02-03T04:59:33.580Z,98695.34
2023-02-03T05:00:36.339Z,98690.91
2023-02-03T05:01:39.300Z,98689.47
2023-02-03T05:02:42.200Z,98697.31
2023-02-03T05:03:45.212Z,98691.47
2023-02-03T05:04:48.070Z,98688.75
2023-02-03T05:05:51.371Z,98693.16
2023-02-03T05:06:54.309Z,98686.78
2023-02-03T05:07:57.460Z,98688.44
2023-02-03T05:09:00.866Z,98688.94
2023-02-03T05:10:03.938Z,98685.25
2023-02-03T05:11:06.985Z,98691.16
2023-02-03T05:12:09.910Z,98691.19
2023-02-03T05:13:12.797Z,98693.66
2023-02-03T05:14:15.760Z,98695.63
2023-02-03T05:15:18.751Z,98696.56
2023-02-03T05:16:21.930Z,98689.19
2023-02-03T05:17:25.111Z,98696.81
2023-02-03T05:18:28.105Z,98699.00
2023-02-03T05:19:30.949Z,98692.38
2023-02-03T05:20:34.017Z,98698.31
2023-02-03T05:21:36.952Z,98701.47
2023-02-03T05:22:40.152Z,98703.44
2023-02-03T05:23:43.188Z,98705.94
2023-02-03T05:24:46.534Z,98707.19
2023-02-03T05:25:49.619Z,98697.34
2023-02-03T05:26:52.392Z,98713.09
2023-02-03T05:27:55.424Z,98716.75
2023-02-03T05:28:58.265Z,98716.53
2023-02-03T05:30:01.304Z,98719.00
2023-02-03T05:31:08.242Z,98722.16
2023-02-03T05:32:11.268Z,98725.34
2023-02-03T05:33:17.025Z,98715.00
2023-02-03T05:34:19.933Z,98710.12
2023-02-03T05:35:22.879Z,98712.31
2023-02-03T05:36:25.778Z,98708.16
2023-02-03T05:37:28.752Z,98708.91
2023-02-03T05:38:32.087Z,98714.84
2023-02-03T05:39:35.201Z,98723.94
2023-02-03T05:40:56.761Z,98724.41
2023-02-03T05:41:59.706Z,98712.37
2023-02-03T05:43:02.551Z,98719.75
2023-02-03T05:44:05.701Z,98714.84
2023-02-03T05:45:09.100Z,98719.25
2023-02-03T05:46:12.257Z,98719.22
2023-02-03T05:47:15.724Z,98717.72
2023-02-03T05:48:18.650Z,98719.25
2023-02-03T05:49:23.450Z,98719.72
2023-02-03T05:50:28.198Z,98723.88
2023-02-03T05:51:31.319Z,98714.25
2023-02-03T05:52:34.435Z,98709.62
2023-02-03T05:53:37.195Z,98719.72
2023-02-03T05:54:39.926Z,98719.47
2023-02-03T05:55:42.721Z,98724.38
2023-02-03T05:56:49.305Z,98725.38
2023-02-03T05:57:52.360Z,98725.63
2023-02-03T05:58:55.250Z,98724.41
2023-02-03T05:59:58.152Z,98719.00
2023-02-03T06:01:01.108Z,98721.50
2023-02-03T06:02:03.987Z,98719.00
2023-02-03T06:03:07.355Z,98722.94
2023-02-03T06:04:10.512Z,98718.28
2023-02-03T06:05:13.702Z,98721.00
2023-02-03T06:06:17.279Z,98717.56
2023-02-03T06:07:20.215Z,98714.34
2023-02-03T06:08:28.838Z,98707.97
2023-02-03T06:09:31.579Z,98714.13
2023-02-03T06:10:34.793Z,98712.66
2023-02-03T06:11:37.738Z,98718.06
2023-02-03T06:12:40.651Z,98713.66
2023-02-03T06:13:44.054Z,98712.69
2023-02-03T06:14:50.298Z,98714.88
2023-02-03T06:15:53.249Z,98708.25
2023-02-03T06:16:57.448Z,98706.78
2023-02-03T06:18:00.334Z,98707.75
2023-02-03T06:19:03.509Z,98701.84
2023-02-03T06:20:09.339Z,98705.31
2023-02-03T06:21:12.214Z,98706.78
2023-02-03T06:22:15.154Z,98719.31
2023-02-03T06:23:19.331Z,98729.38
2023-02-03T06:24:22.187Z,98715.34
2023-02-03T06:25:28.398Z,98720.50
2023-02-03T06:26:31.457Z,98715.84
2023-02-03T06:27:34.515Z,98722.19
2023-02-03T06:28:38.633Z,98717.31
2023-02-03T06:29:42.350Z,98719.00
2023-02-03T06:30:45.250Z,98719.00
2023-02-03T06:31:48.304Z,98721.94
2023-02-03T06:32:51.247Z,98724.88
2023-02-03T06:33:54.146Z,98720.00
2023-02-03T06:34:57.035Z,98714.84
2023-02-03T06:36:00.430Z,98714.34
2023-02-03T06:37:03.363Z,98721.72
2023-02-03T06:38:06.260Z,98721.25
2023-02-03T06:39:09.040Z,98727.34
2023-02-03T06:40:12.882Z,98721.47
2023-02-03T06:41:16.462Z,98727.84
2023-02-03T06:42:20.356Z,98734.50
2023-02-03T06:43:23.128Z,98728.84
2023-02-03T06:44:27.075Z,98736.69
2023-02-03T06:45:33.168Z,98731.78
2023-02-03T06:46:36.022Z,98737.94
2023-02-03T06:47:46.076Z,98729.06
2023-02-03T06:48:48.882Z,98730.31
2023-02-03T06:49:52.487Z,98730.53
2023-02-03T06:50:55.877Z,98722.19
2023-02-03T06:51:58.819Z,98728.09
2023-02-03T06:53:01.714Z,98721.44
2023-02-03T06:54:05.218Z,98725.12
2023-02-03T06:55:08.526Z,98725.63
2023-02-03T06:56:12.343Z,98724.41
2023-02-03T06:57:15.443Z,98724.16
2023-02-03T06:58:18.376Z,98717.50
2023-02-03T06:59:21.315Z,98724.88
2023-02-03T07:00:24.682Z,98726.13
2023-02-03T07:01:27.733Z,98729.31
2023-02-03T07:02:31.169Z,98716.28
2023-02-03T07:03:34.113Z,98721.19
2023-02-03T07:04:39.078Z,98716.72
2023-02-03T07:05:45.308Z,98716.22
2023-02-03T07:06:48.093Z,98710.81
2023-02-03T07:07:52.101Z,98717.47
2023-02-03T07:09:00.672Z,98719.19
2023-02-03T07:10:04.732Z,98718.19
2023-02-03T07:11:07.947Z,98710.38
2023-02-03T07:12:10.914Z,98714.00
2023-02-03T07:13:13.826Z,98715.25
2023-02-03T07:14:16.857Z,98711.09
2023-02-03T07:15:19.827Z,98717.22
2023-02-03T07:16:22.829Z,98712.78
2023-02-03T07:17:25.856Z,98716.94
2023-02-03T07:18:46.222Z,98712.53
2023-02-03T07:19:50.309Z,98718.19
2023-02-03T07:20:53.492Z,98714.97
2023-02-03T07:21:56.516Z,98714.97
2023-02-03T07:22:59.536Z,98719.16
2023-02-03T07:24:03.311Z,98709.53
2023-02-03T07:25:06.517Z,98708.06
2023-02-03T07:26:10.842Z,98710.56
2023-02-03T07:27:13.844Z,98706.88
2023-02-03T07:28:16.914Z,98708.34
2023-02-03T07:29:19.925Z,98717.41
2023-02-03T07:30:23.202Z,98720.13
2023-02-03T07:31:26.507Z,98712.53
2023-02-03T07:32:29.467Z,98722.81
2023-02-03T07:33:32.460Z,98720.13
2023-02-03T07:34:35.279Z,98722.31
2023-02-03T07:35:38.262Z,98722.81
2023-02-03T07:36:41.711Z,98724.28
2023-02-03T07:37:45.291Z,98726.53
2023-02-03T07:38:48.365Z,98720.84
2023-02-03T07:39:51.242Z,98719.63
2023-02-03T07:40:54.482Z,98728.22
2023-02-03T07:41:57.413Z,98731.16
2023-02-03T07:43:00.344Z,98730.94
2023-02-03T07:44:03.823Z,98732.16
2023-02-03T07:45:07.278Z,98732.66
2023-02-03T07:46:10.625Z,98729.97
2023-02-03T07:47:13.625Z,98738.06
2023-02-03T07:48:17.058Z,98731.94
2023-02-03T07:49:20.437Z,98729.69
2023-02-03T07:50:23.506Z,98734.13
2023-02-03T07:51:26.933Z,98730.91
2023-02-03T07:52:29.917Z,98735.31
2023-02-03T07:53:33.337Z,98734.59
2023-02-03T07:54:38.204Z,98730.16
2023-02-03T07:55:41.092Z,98732.34
2023-02-03T07:56:44.055Z,98725.75
2023-02-03T07:57:47.273Z,98722.31
2023-02-03T07:58:53.226Z,98740.03
2023-02-03T07:59:56.304Z,98732.66
2023-02-03T08:00:59.817Z,98734.84
2023-02-03T08:02:02.705Z,98742.75
2023-02-03T08:03:05.873Z,98735.84
2023-02-03T08:04:09.030Z,98737.84
2023-02-03T08:05:12.966Z,98734.16
2023-02-03T08:06:16.880Z,98733.91
2023-02-03T08:07:19.707Z,98729.50
2023-02-03T08:08:22.934Z,98728.75
2023-02-03T08:09:25.921Z,98723.34
2023-02-03T08:10:29.131Z,98730.97
2023-02-03T08:11:32.809Z,98720.16
2023-02-03T08:12:36.031Z,98728.47
2023-02-03T08:13:38.938Z,98728.47
2023-02-03T08:14:41.799Z,98729.69
2023-02-03T08:15:44.664Z,98729.69
2023-02-03T08:16:47.792Z,98726.03
2023-02-03T08:17:51.135Z,98738.31
2023-02-03T08:18:53.966Z,98726.94
2023-02-03T08:19:57.016Z,98727.41
2023-02-03T08:21:00.951Z,98722.03
2023-02-03T08:22:03.804Z,98718.09
2023-02-03T08:23:06.898Z,98724.50
2023-02-03T08:24:09.828Z,98724.03
2023-02-03T08:25:13.489Z,98719.38
2023-02-03T08:26:16.405Z,98719.38
2023-02-03T08:27:21.708Z,98721.84
2023-02-03T08:28:25.170Z,98715.44
2023-02-03T08:29:28.349Z,98720.13
2023-02-03T08:30:31.880Z,98720.34
2023-02-03T08:31:35.067Z,98726.53
2023-02-03T08:32:38.033Z,98714.94
2023-02-03T08:33:40.932Z,98734.84
2023-02-03T08:34:49.969Z,98731.91
2023-02-03T08:35:52.886Z,98728.94
2023-02-03T08:36:55.884Z,98728.94
2023-02-03T08:37:58.906Z,98737.06
2023-02-03T08:39:05.405Z,98736.06
2023-02-03T08:40:08.874Z,98729.16
2023-02-03T08:41:15.399Z,98733.81
2023-02-03T08:42:18.911Z,98740.47
2023-02-03T08:43:21.725Z,98740.47
2023-02-03T08:44:24.941Z,98734.09
2023-02-03T08:45:28.208Z,98738.28
2023-02-03T08:46:31.581Z,98746.59
2023-02-03T08:47:37.079Z,98746.84
2023-02-03T08:48:40.764Z,98744.88
2023-02-03T08:49:44.165Z,98735.50
2023-02-03T08:50:53.204Z,98744.88
2023-02-03T08:51:57.484Z,98742.94
2023-02-03T08:53:00.386Z,98744.19
2023-02-03T08:55:12.786Z,98740.50
2023-02-03T08:56:15.717Z,98738.53
2023-02-03T08:57:18.650Z,98742.94
2023-02-03T08:58:21.718Z,98742.94
2023-02-03T08:59:25.269Z,98743.44
2023-02-03T09:00:28.807Z,98749.34
2023-02-03T09:01:32.476Z,98747.66
2023-02-03T09:02:35.632Z,98749.84
2023-02-03T09:03:40.349Z,98756.47
2023-02-03T09:04:44.073Z,98757.22
2023-02-03T09:05:47.231Z,98750.34
2023-02-03T09:06:55.145Z,98751.31
2023-02-03T09:07:58.510Z,98750.53
2023-02-03T09:09:01.531Z,98746.59
2023-02-03T09:10:04.810Z,98752.28
2023-02-03T09:11:12.478Z,98754.28
2023-02-03T09:12:15.662Z,98743.00
2023-02-03T09:13:18.534Z,98753.81
2023-02-03T09:14:21.537Z,98749.88
2023-02-03T09:15:24.979Z,98752.34
2023-02-03T09:16:28.102Z,98751.59
2023-02-03T09:17:31.274Z,98745.94
2023-02-03T09:18:34.522Z,98747.19
2023-02-03T09:19:37.652Z,98747.69
2023-02-03T09:20:40.784Z,98747.19
2023-02-03T09:21:48.290Z,98755.50
2023-02-03T09:22:51.497Z,98747.12
2023-02-03T09:23:54.825Z,98747.41
2023-02-03T09:24:58.294Z,98743.50
2023-02-03T09:26:05.433Z,98736.13
2023-02-03T09:27:08.371Z,98736.59
2023-02-03T09:28:11.680Z,98740.31
2023-02-03T09:29:14.743Z,98730.47
2023-02-03T09:30:18.030Z,98729.75
2023-02-03T09:31:20.925Z,98724.59
2023-02-03T09:32:23.921Z,98720.66
2023-02-03T09:33:27.319Z,98719.91
2023-02-03T09:34:30.232Z,98724.09
2023-02-03T09:35:33.154Z,98727.03
2023-02-03T09:36:36.198Z,98727.53
2023-02-03T09:37:39.272Z,98717.94
2023-02-03T09:38:42.546Z,98711.31
2023-02-03T09:39:45.390Z,98716.00
2023-02-03T09:41:27.324Z,98711.59
2023-02-03T09:42:57.087Z,98703.22
2023-02-03T09:44:35.508Z,98709.38
2023-02-03T09:45:38.588Z,98699.56
2023-02-03T09:46:53.584Z,98701.50
2023-02-03T09:48:04.316Z,98696.84
2023-02-03T09:49:32.851Z,98690.19
2023-02-03T09:50:39.147Z,98687.72
2023-02-03T09:51:54.778Z,98682.31
2023-02-03T09:53:02.770Z,98674.94
2023-02-03T09:54:16.814Z,98671.47
2023-02-03T09:55:37.589Z,98670.97
2023-02-03T09:56:41.434Z,98671.69
2023-02-03T09:57:57.411Z,98663.09
2023-02-03T09:59:01.234Z,98660.88
2023-02-03T10:00:17.564Z,98658.41
2023-02-03T10:01:22.510Z,98656.44
2023-02-03T10:02:49.694Z,98650.75
2023-02-03T10:04:04.228Z,98645.34
2023-02-03T10:05:29.106Z,98647.56
2023-02-03T10:06:38.678Z,98648.25
2023-02-03T10:07:54.005Z,98646.75
2023-02-03T10:09:27.683Z,98640.56
2023-02-03T10:11:10.068Z,98638.09
2023-02-03T10:12:33.673Z,98633.19
2023-02-03T10:14:01.438Z,98630.47
2023-02-03T10:15:44.942Z,98625.28
2023-02-03T10:17:16.017Z,98619.63
2023-02-03T10:18:28.817Z,98618.16
2023-02-03T10:19:43.968Z,98618.16
2023-02-03T10:20:49.082Z,98616.91
2023-02-03T10:21:57.793Z,98614.69
2023-02-03T10:23:07.074Z,98607.56
2023-02-03T10:24:19.558Z,98606.37
2023-02-03T10:25:32.312Z,98604.38
2023-02-03T10:26:35.591Z,98600.69
2023-02-03T10:27:38.968Z,98588.63
2023-02-03T10:29:33.190Z,98587.91
2023-02-03T10:30:46.543Z,98591.28
2023-02-03T10:31:49.993Z,98586.19
2023-02-03T10:33:25.291Z,98583.25
2023-02-03T10:34:28.467Z,98585.47
2023-02-03T10:36:01.019Z,98585.41
2023-02-03T10:37:30.021Z,98578.03
2023-02-03T10:38:33.546Z,98581.03
2023-02-03T10:39:48.016Z,98577.59
2023-02-03T10:40:51.223Z,98570.94
2023-02-03T10:41:54.622Z,98573.88
2023-02-03T10:43:16.054Z,98573.13
2023-02-03T10:44:19.040Z,98576.00
2023-02-03T10:45:22.057Z,98572.31
2023-02-03T10:46:34.752Z,98562.47
2023-02-03T10:47:44.646Z,98559.28
2023-02-03T10:48:49.630Z,98558.06
2023-02-03T10:49:55.637Z,98560.03
2023-02-03T10:50:59.112Z,98560.44
2023-02-03T10:52:05.182Z,98561.69
2023-02-03T10:53:23.893Z,98550.63
2023-02-03T10:54:32.414Z,98548.47
2023-02-03T10:55:35.544Z,98540.84
2023-02-03T10:56:41.052Z,98542.97
2023-02-03T10:57:44.226Z,98538.31
2023-02-03T10:58:50.765Z,98529.75
2023-02-03T11:00:22.492Z,98532.91
2023-02-03T11:01:28.655Z,98537.66
2023-02-03T11:02:32.172Z,98522.87
2023-02-03T11:03:35.493Z,98532.78
2023-02-03T11:04:38.625Z,98531.78
2023-02-03T11:05:43.347Z,98522.19
2023-02-03T11:06:58.980Z,98517.75
2023-02-03T11:08:02.276Z,98522.16
2023-02-03T11:09:25.397Z,98516.00
2023-02-03T11:10:40.962Z,98514.75
2023-02-03T11:11:43.940Z,98501.81
2023-02-03T11:12:50.235Z,98502.75
2023-02-03T11:14:17.218Z,98498.03
2023-02-03T11:15:20.201Z,98483.66
2023-02-03T11:16:27.001Z,98481.56
2023-02-03T11:17:33.227Z,98479.91
2023-02-03T11:18:41.684Z,98481.16
2023-02-03T11:19:49.836Z,98470.75
2023-02-03T11:20:53.300Z,98466.12
2023-02-03T11:21:57.144Z,98471.53
2023-02-03T11:23:04.566Z,98489.97
2023-02-03T11:24:26.289Z,98506.19
2023-02-03T11:25:34.399Z,98522.53
2023-02-03T11:26:45.533Z,98484.09
2023-02-03T11:27:48.596Z,98474.03
2023-02-03T11:28:54.743Z,98463.03
2023-02-03T11:30:31.097Z,98464.53
2023-02-03T11:31:36.780Z,98467.97
2023-02-03T11:32:43.071Z,98473.38
2023-02-03T11:33:53.053Z,98464.84
2023-02-03T11:35:01.049Z,98456.00
2023-02-03T11:36:11.822Z,98455.94
2023-02-03T11:37:27.357Z,98459.06
2023-02-03T11:38:33.229Z,98459.81
2023-02-03T11:39:36.480Z,98457.34
2023-02-03T11:40:41.536Z,98454.56
2023-02-03T11:41:45.489Z,98453.34
2023-02-03T11:42:51.135Z,98446.69
2023-02-03T11:43:56.468Z,98448.44
2023-02-03T11:45:18.023Z,98434.19
2023-02-03T11:46:21.138Z,98435.62
2023-02-03T11:47:24.583Z,98430.37
2023-02-03T11:48:38.202Z,98424.53
2023-02-03T11:50:03.816Z,98430.37
2023-02-03T11:51:45.725Z,98426.50
2023-02-03T11:53:00.600Z,98420.66
2023-02-03T11:54:14.614Z,98413.50
2023-02-03T11:55:48.939Z,98411.75
2023-02-03T11:57:01.885Z,98402.59
2023-02-03T11:58:24.566Z,98399.03
2023-02-03T12:00:13.741Z,98400.94
2023-02-03T12:01:54.171Z,98402.41
2023-02-03T12:03:18.485Z,98393.03
2023-02-03T12:04:43.405Z,98390.31
2023-02-03T12:05:51.592Z,98386.44
2023-02-03T12:07:16.138Z,98375.34
2023-02-03T12:08:46.710Z,98376.59
2023-02-03T12:10:33.778Z,98374.31
2023-02-03T12:11:36.855Z,98360.72
2023-02-03T12:12:52.495Z,98362.03
2023-02-03T12:14:11.266Z,98357.78
2023-02-03T12:15:41.582Z,98356.09
2023-02-03T12:17:22.268Z,98358.31
2023-02-03T12:18:32.792Z,98357.28
2023-02-03T12:20:16.106Z,98351.94
2023-02-03T12:21:45.710Z,98339.87
2023-02-03T12:23:15.435Z,98339.59
2023-02-03T12:24:48.468Z,98339.44
2023-02-03T12:26:02.876Z,98344.12
2023-02-03T12:27:22.506Z,98330.28
2023-02-03T12:29:01.472Z,98320.00
2023-02-03T12:30:09.583Z,98314.66
2023-02-03T12:31:30.630Z,98314.88
2023-02-03T12:32:51.286Z,98304.78
2023-02-03T12:34:17.905Z,98298.34
2023-02-03T12:35:32.395Z,98304.56
2023-02-03T12:36:53.859Z,98287.31
2023-02-03T12:38:04.444Z,98288.25
2023-02-03T12:39:21.839Z,98287.31
2023-02-03T12:40:49.274Z,98288.78
2023-02-03T12:42:01.474Z,98277.44
2023-02-03T12:43:16.576Z,98283.12
2023-02-03T12:44:26.071Z,98281.16
2023-02-03T12:45:33.119Z,98279.94
2023-02-03T12:46:41.582Z,98270.84
2023-02-03T12:48:02.767Z,98276.91
2023-02-03T12:49:05.640Z,98272.03
2023-02-03T12:50:22.940Z,98261.72
2023-02-03T12:51:35.246Z,98260.28
2023-02-03T12:52:42.049Z,98262.00
2023-02-03T12:53:53.565Z,98252.97
2023-02-03T12:55:26.909Z,98254.09
2023-02-03T12:56:41.294Z,98251.19
2023-02-03T12:58:23.347Z,98248.19
2023-02-03T12:59:30.356Z,98246.44
2023-02-03T13:00:39.361Z,98236.72
2023-02-03T13:01:52.621Z,98236.41
2023-02-03T13:03:11.150Z,98231.75
2023-02-03T13:04:41.957Z,98225.09
2023-02-03T13:06:05.512Z,98228.09
2023-02-03T13:07:31.317Z,98220.50
2023-02-03T13:08:43.595Z,98213.84
2023-02-03T13:10:04.048Z,98215.91
2023-02-03T13:11:24.957Z,98206.66
2023-02-03T13:12:34.450Z,98201.25
2023-02-03T13:13:46.788Z,98199.88
2023-02-03T13:14:59.289Z,98199.66
2023-02-03T13:16:08.184Z,98204.78
2023-02-03T13:17:11.363Z,98191.31
2023-02-03T13:18:29.803Z,98199.97
2023-02-03T13:19:47.117Z,98197.97
2023-02-03T13:20:50.586Z,98193.31